sensor_id;sensor_type;location;lat;lon;timestamp;pressure;altitude;pressure_sealevel;temperature;humidity
9839;BME280;4958;48.150;11.506;2023-04-27T00:00:05;95635.28;;;11.01;56.24
9839;BME280;4958;48.150;11.506;2023-04-27T00:02:53;95639.38;;;10.96;55.99
9839;BME280;4958;48.150;11.506;2023-04-27T00:05:49;95629.88;;;10.96;55.80
9839;BME280;4958;48.150;11.506;2023-04-27T00:08:50;95625.31;;;10.84;57.86
9839;BME280;4958;48.150;11.506;2023-04-27T00:11:43;95629.41;;;10.78;58.48
9839;BME280;4958;48.150;11.506;2023-04-27T00:14:15;95624.16;;;10.71;57.74
9839;BME280;4958;48.150;11.506;2023-04-27T00:19:59;95636.94;;;10.80;59.30
9839;BME280;4958;48.150;11.506;2023-04-27T00:22:42;95625.41;;;10.76;60.09
9839;BME280;4958;48.150;11.506;2023-04-27T00:25:17;95622.75;;;10.69;60.75
9839;BME280;4958;48.150;11.506;2023-04-27T00:27:58;95625.56;;;10.59;61.07
9839;BME280;4958;48.150;11.506;2023-04-27T00:30:37;95624.75;;;10.59;60.78
9839;BME280;4958;48.150;11.506;2023-04-27T00:33:39;95615.97;;;10.53;61.26
9839;BME280;4958;48.150;11.506;2023-04-27T00:36:11;95619.59;;;10.44;61.79
9839;BME280;4958;48.150;11.506;2023-04-27T00:39:08;95621.47;;;10.50;62.05
9839;BME280;4958;48.150;11.506;2023-04-27T00:41:49;95616.78;;;10.54;61.99
9839;BME280;4958;48.150;11.506;2023-04-27T00:45:01;95616.59;;;10.55;62.19
9839;BME280;4958;48.150;11.506;2023-04-27T00:47:50;95610.03;;;10.53;63.10
9839;BME280;4958;48.150;11.506;2023-04-27T00:50:31;95613.47;;;10.60;62.23
9839;BME280;4958;48.150;11.506;2023-04-27T00:53:19;95612.69;;;10.59;62.73
9839;BME280;4958;48.150;11.506;2023-04-27T00:56:13;95618.72;;;10.52;63.41
9839;BME280;4958;48.150;11.506;2023-04-27T00:59:01;95620.59;;;10.58;62.87
9839;BME280;4958;48.150;11.506;2023-04-27T01:01:37;95616.59;;;10.55;62.86
9839;BME280;4958;48.150;11.506;2023-04-27T01:04:23;95619.00;;;10.57;62.63
9839;BME280;4958;48.150;11.506;2023-04-27T01:07:05;95618.03;;;10.58;62.78
9839;BME280;4958;48.150;11.506;2023-04-27T01:10:01;95628.59;;;10.63;63.13
9839;BME280;4958;48.150;11.506;2023-04-27T01:12:53;95620.69;;;10.64;62.86
9839;BME280;4958;48.150;11.506;2023-04-27T01:15:44;95620.84;;;10.63;62.33
9839;BME280;4958;48.150;11.506;2023-04-27T01:18:56;95615.38;;;10.66;61.75
9839;BME280;4958;48.150;11.506;2023-04-27T01:21:42;95620.69;;;10.64;62.11
9839;BME280;4958;48.150;11.506;2023-04-27T01:27:32;95622.19;;;10.59;62.61
9839;BME280;4958;48.150;11.506;2023-04-27T01:30:14;95620.50;;;10.51;62.85
9839;BME280;4958;48.150;11.506;2023-04-27T01:33:01;95618.63;;;10.45;63.39
9839;BME280;4958;48.150;11.506;2023-04-27T01:35:43;95624.38;;;10.47;63.63
9839;BME280;4958;48.150;11.506;2023-04-27T01:38:13;95621.47;;;10.50;63.05
9839;BME280;4958;48.150;11.506;2023-04-27T01:41:11;95615.69;;;10.48;63.41
9839;BME280;4958;48.150;11.506;2023-04-27T01:44:08;95616.66;;;10.47;63.30
9839;BME280;4958;48.150;11.506;2023-04-27T01:46:41;95620.66;;;10.35;63.18
9839;BME280;4958;48.150;11.506;2023-04-27T01:49:30;95625.03;;;10.26;63.61
9839;BME280;4958;48.150;11.506;2023-04-27T01:52:22;95635.63;;;10.31;63.78
9839;BME280;4958;48.150;11.506;2023-04-27T01:55:20;95630.03;;;10.28;63.86
9839;BME280;4958;48.150;11.506;2023-04-27T01:58:06;95623.72;;;10.30;64.13
9839;BME280;4958;48.150;11.506;2023-04-27T02:00:48;95628.25;;;10.28;64.10
9839;BME280;4958;48.150;11.506;2023-04-27T02:03:24;95627.09;;;10.31;63.91
9839;BME280;4958;48.150;11.506;2023-04-27T02:06:03;95628.72;;;10.32;63.82
9839;BME280;4958;48.150;11.506;2023-04-27T02:08:42;95628.06;;;10.30;64.03
9839;BME280;4958;48.150;11.506;2023-04-27T02:11:30;95626.47;;;10.29;63.95
9839;BME280;4958;48.150;11.506;2023-04-27T02:14:29;95633.28;;;10.22;64.78
9839;BME280;4958;48.150;11.506;2023-04-27T02:17:10;95633.50;;;10.12;64.67
9839;BME280;4958;48.150;11.506;2023-04-27T02:21:40;95632.75;;;10.03;64.65
9839;BME280;4958;48.150;11.506;2023-04-27T02:25:35;95636.66;;;9.99;65.11
9839;BME280;4958;48.150;11.506;2023-04-27T02:28:28;95638.47;;;9.91;66.09
9839;BME280;4958;48.150;11.506;2023-04-27T02:31:34;95640.56;;;9.87;66.28
9839;BME280;4958;48.150;11.506;2023-04-27T02:34:12;95636.22;;;9.88;65.57
9839;BME280;4958;48.150;11.506;2023-04-27T02:36:49;95638.41;;;9.76;66.16
9839;BME280;4958;48.150;11.506;2023-04-27T02:39:36;95642.59;;;9.69;66.76
9839;BME280;4958;48.150;11.506;2023-04-27T02:42:31;95644.38;;;9.68;66.85
9839;BME280;4958;48.150;11.506;2023-04-27T02:45:19;95648.88;;;9.66;67.07
9839;BME280;4958;48.150;11.506;2023-04-27T02:48:17;95646.78;;;9.70;66.41
9839;BME280;4958;48.150;11.506;2023-04-27T02:51:10;95643.75;;;9.66;66.83
9839;BME280;4958;48.150;11.506;2023-04-27T02:53:52;95644.72;;;9.65;66.84
9839;BME280;4958;48.150;11.506;2023-04-27T02:56:22;95641.88;;;9.60;66.88
9839;BME280;4958;48.150;11.506;2023-04-27T02:59:09;95648.63;;;9.53;67.07
9839;BME280;4958;48.150;11.506;2023-04-27T03:01:52;95642.06;;;9.51;67.21
9839;BME280;4958;48.150;11.506;2023-04-27T03:05:04;95639.50;;;9.51;67.35
9839;BME280;4958;48.150;11.506;2023-04-27T03:07:44;95638.75;;;9.42;67.89
9839;BME280;4958;48.150;11.506;2023-04-27T03:10:29;95637.16;;;9.41;68.26
9839;BME280;4958;48.150;11.506;2023-04-27T03:12:59;95642.72;;;9.45;67.57
9839;BME280;4958;48.150;11.506;2023-04-27T03:15:29;95644.97;;;9.48;67.63
9839;BME280;4958;48.150;11.506;2023-04-27T03:17:59;95644.63;;;9.51;67.47
9839;BME280;4958;48.150;11.506;2023-04-27T03:20:45;95649.94;;;9.49;67.92
9839;BME280;4958;48.150;11.506;2023-04-27T03:23:28;95651.94;;;9.39;67.97
9839;BME280;4958;48.150;11.506;2023-04-27T03:26:06;95656.03;;;9.17;68.79
9839;BME280;4958;48.150;11.506;2023-04-27T03:28:41;95650.09;;;9.17;68.81
9839;BME280;4958;48.150;11.506;2023-04-27T03:31:15;95653.25;;;9.27;68.39
9839;BME280;4958;48.150;11.506;2023-04-27T03:33:56;95652.91;;;9.30;69.10
9839;BME280;4958;48.150;11.506;2023-04-27T03:36:31;95666.72;;;9.29;69.06
9839;BME280;4958;48.150;11.506;2023-04-27T03:39:03;95668.81;;;9.33;68.60
9839;BME280;4958;48.150;11.506;2023-04-27T03:42:02;95669.59;;;9.34;68.77
9839;BME280;4958;48.150;11.506;2023-04-27T03:44:48;95663.03;;;9.31;68.67
9839;BME280;4958;48.150;11.506;2023-04-27T03:47:28;95668.81;;;9.33;68.58
9839;BME280;4958;48.150;11.506;2023-04-27T03:50:11;95658.66;;;9.40;68.17
9839;BME280;4958;48.150;11.506;2023-04-27T03:52:50;95661.88;;;9.42;68.46
9839;BME280;4958;48.150;11.506;2023-04-27T03:58:37;95665.41;;;9.41;68.80
9839;BME280;4958;48.150;11.506;2023-04-27T04:01:42;95670.72;;;9.40;68.63
9839;BME280;4958;48.150;11.506;2023-04-27T04:04:31;95671.78;;;9.45;69.10
9839;BME280;4958;48.150;11.506;2023-04-27T04:07:29;95672.09;;;9.50;68.37
9839;BME280;4958;48.150;11.506;2023-04-27T04:09:59;95679.81;;;9.50;68.60
9839;BME280;4958;48.150;11.506;2023-04-27T04:16:27;95691.13;;;9.33;69.22
9839;BME280;4958;48.150;11.506;2023-04-27T04:19:13;95700.59;;;9.32;69.54
9839;BME280;4958;48.150;11.506;2023-04-27T04:22:09;95699.78;;;9.40;68.85
9839;BME280;4958;48.150;11.506;2023-04-27T04:25:05;95701.03;;;9.44;68.55
9839;BME280;4958;48.150;11.506;2023-04-27T04:27:58;95707.13;;;9.51;68.52
9839;BME280;4958;48.150;11.506;2023-04-27T04:30:55;95699.38;;;9.59;68.58
9839;BME280;4958;48.150;11.506;2023-04-27T04:34:19;95707.75;;;9.53;69.33
9839;BME280;4958;48.150;11.506;2023-04-27T04:36:56;95713.69;;;9.54;69.15
9839;BME280;4958;48.150;11.506;2023-04-27T04:39:32;95718.19;;;9.60;68.51
9839;BME280;4958;48.150;11.506;2023-04-27T04:42:20;95722.97;;;9.63;69.27
9839;BME280;4958;48.150;11.506;2023-04-27T04:47:53;95717.47;;;9.74;68.56
9839;BME280;4958;48.150;11.506;2023-04-27T04:50:43;95714.41;;;9.79;69.07
9839;BME280;4958;48.150;11.506;2023-04-27T04:53:18;95718.22;;;9.83;68.61
9839;BME280;4958;48.150;11.506;2023-04-27T04:56:24;95709.03;;;9.88;69.07
9839;BME280;4958;48.150;11.506;2023-04-27T05:02:17;95720.38;;;10.02;68.75
9839;BME280;4958;48.150;11.506;2023-04-27T05:05:38;95713.13;;;10.05;68.82
9839;BME280;4958;48.150;11.506;2023-04-27T05:08:36;95719.53;;;10.10;69.33
9839;BME280;4958;48.150;11.506;2023-04-27T05:11:29;95719.81;;;10.15;68.81
9839;BME280;4958;48.150;11.506;2023-04-27T05:17:43;95729.78;;;10.18;69.03
9839;BME280;4958;48.150;11.506;2023-04-27T05:20:23;95733.13;;;10.26;69.15
9839;BME280;4958;48.150;11.506;2023-04-27T05:30:00;95727.47;;;10.31;69.89
9839;BME280;4958;48.150;11.506;2023-04-27T05:33:00;95717.47;;;10.36;69.00
9839;BME280;4958;48.150;11.506;2023-04-27T05:35:37;95720.03;;;10.36;68.88
9839;BME280;4958;48.150;11.506;2023-04-27T05:38:27;95732.97;;;10.28;69.65
9839;BME280;4958;48.150;11.506;2023-04-27T05:41:19;95733.41;;;10.31;68.76
9839;BME280;4958;48.150;11.506;2023-04-27T05:44:08;95749.25;;;10.43;64.99
9839;BME280;4958;48.150;11.506;2023-04-27T05:47:01;95750.34;;;10.49;63.79
9839;BME280;4958;48.150;11.506;2023-04-27T05:50:18;95748.06;;;10.54;64.14
9839;BME280;4958;48.150;11.506;2023-04-27T05:53:45;95750.66;;;10.54;62.05
9839;BME280;4958;48.150;11.506;2023-04-27T05:56:52;95738.44;;;10.48;61.03
9839;BME280;4958;48.150;11.506;2023-04-27T06:00:52;95747.59;;;10.50;60.30
9839;BME280;4958;48.150;11.506;2023-04-27T06:13:04;95746.22;;;10.62;59.41
9839;BME280;4958;48.150;11.506;2023-04-27T06:16:06;95749.34;;;10.58;59.80
9839;BME280;4958;48.150;11.506;2023-04-27T06:18:58;95751.09;;;10.57;60.16
9839;BME280;4958;48.150;11.506;2023-04-27T06:21:40;95752.19;;;10.63;60.21
9839;BME280;4958;48.150;11.506;2023-04-27T06:24:43;95756.75;;;10.76;60.85
9839;BME280;4958;48.150;11.506;2023-04-27T06:37:19;95753.56;;;11.11;60.43
9839;BME280;4958;48.150;11.506;2023-04-27T06:40:16;95757.16;;;11.02;59.93
9839;BME280;4958;48.150;11.506;2023-04-27T06:46:41;95760.19;;;11.05;60.58
9839;BME280;4958;48.150;11.506;2023-04-27T06:49:26;95760.38;;;11.19;60.44
9839;BME280;4958;48.150;11.506;2023-04-27T06:55:21;95761.59;;;11.31;59.45
9839;BME280;4958;48.150;11.506;2023-04-27T06:58:52;95759.72;;;11.39;59.54
9839;BME280;4958;48.150;11.506;2023-04-27T07:01:59;95758.47;;;11.50;59.32
9839;BME280;4958;48.150;11.506;2023-04-27T07:04:37;95755.72;;;11.52;59.21
9839;BME280;4958;48.150;11.506;2023-04-27T07:07:43;95759.91;;;11.53;58.69
9839;BME280;4958;48.150;11.506;2023-04-27T07:10:37;95761.66;;;11.37;58.07
9839;BME280;4958;48.150;11.506;2023-04-27T07:13:37;95762.03;;;11.34;58.57
9839;BME280;4958;48.150;11.506;2023-04-27T07:20:09;95768.69;;;11.29;58.03
9839;BME280;4958;48.150;11.506;2023-04-27T07:23:03;95766.47;;;11.40;56.82
9839;BME280;4958;48.150;11.506;2023-04-27T07:25:56;95766.91;;;11.44;57.46
9839;BME280;4958;48.150;11.506;2023-04-27T07:28:53;95767.88;;;11.43;56.91
9839;BME280;4958;48.150;11.506;2023-04-27T07:32:07;95771.81;;;11.54;56.77
9839;BME280;4958;48.150;11.506;2023-04-27T07:42:15;95762.56;;;12.03;56.00
9839;BME280;4958;48.150;11.506;2023-04-27T07:45:04;95759.94;;;12.18;55.90
9839;BME280;4958;48.150;11.506;2023-04-27T07:48:19;95763.31;;;12.19;54.00
9839;BME280;4958;48.150;11.506;2023-04-27T07:51:15;95761.09;;;12.16;53.07
9839;BME280;4958;48.150;11.506;2023-04-27T08:17:37;95773.19;;;12.72;51.96
9839;BME280;4958;48.150;11.506;2023-04-27T08:24:00;95771.22;;;12.96;50.70
9839;BME280;4958;48.150;11.506;2023-04-27T08:32:30;95772.63;;;13.20;50.73
9839;BME280;4958;48.150;11.506;2023-04-27T08:37:48;95777.59;;;13.49;50.20
9839;BME280;4958;48.150;11.506;2023-04-27T08:40:59;95779.09;;;13.65;49.79
9839;BME280;4958;48.150;11.506;2023-04-27T08:53:56;95768.72;;;13.99;47.98
9839;BME280;4958;48.150;11.506;2023-04-27T09:00:50;95773.69;;;14.48;48.13
9839;BME280;4958;48.150;11.506;2023-04-27T09:04:16;95772.16;;;14.80;48.54
9839;BME280;4958;48.150;11.506;2023-04-27T09:08:00;95757.00;;;15.10;47.37
9839;BME280;4958;48.150;11.506;2023-04-27T09:14:01;95759.75;;;15.55;47.12
9839;BME280;4958;48.150;11.506;2023-04-27T09:17:14;95760.69;;;15.87;47.12
9839;BME280;4958;48.150;11.506;2023-04-27T09:20:41;95758.22;;;16.05;46.30
9839;BME280;4958;48.150;11.506;2023-04-27T09:23:55;95759.34;;;16.67;45.76
9839;BME280;4958;48.150;11.506;2023-04-27T09:37:06;95732.75;;;17.15;43.50
9839;BME280;4958;48.150;11.506;2023-04-27T09:40:21;95735.97;;;16.92;43.81
9839;BME280;4958;48.150;11.506;2023-04-27T09:47:03;95738.38;;;16.24;43.02
9839;BME280;4958;48.150;11.506;2023-04-27T10:00:37;95726.75;;;16.58;39.73
9839;BME280;4958;48.150;11.506;2023-04-27T10:14:09;95716.00;;;17.11;40.30
9839;BME280;4958;48.150;11.506;2023-04-27T10:24:28;95697.94;;;17.34;41.47
9839;BME280;4958;48.150;11.506;2023-04-27T10:44:52;95690.53;;;16.70;41.63
9839;BME280;4958;48.150;11.506;2023-04-27T10:47:56;95686.06;;;16.45;42.41
9839;BME280;4958;48.150;11.506;2023-04-27T10:50:44;95695.34;;;16.35;42.69
9839;BME280;4958;48.150;11.506;2023-04-27T10:56:53;95702.88;;;16.11;44.14
9839;BME280;4958;48.150;11.506;2023-04-27T10:59:58;95698.88;;;16.09;43.59
9839;BME280;4958;48.150;11.506;2023-04-27T11:06:06;95689.25;;;16.47;43.76
9839;BME280;4958;48.150;11.506;2023-04-27T11:09:30;95685.19;;;16.89;42.82
9839;BME280;4958;48.150;11.506;2023-04-27T11:15:46;95688.25;;;17.66;40.84
9839;BME280;4958;48.150;11.506;2023-04-27T11:22:10;95696.56;;;17.75;41.62
9839;BME280;4958;48.150;11.506;2023-04-27T11:25:10;95699.16;;;17.13;41.36
9839;BME280;4958;48.150;11.506;2023-04-27T11:34:35;95694.44;;;16.54;42.45
9839;BME280;4958;48.150;11.506;2023-04-27T11:37:32;95693.63;;;16.53;42.45
9839;BME280;4958;48.150;11.506;2023-04-27T11:43:39;95696.94;;;16.67;42.56
9839;BME280;4958;48.150;11.506;2023-04-27T11:49:38;95709.03;;;16.48;44.68
9839;BME280;4958;48.150;11.506;2023-04-27T11:52:37;95705.44;;;16.49;44.36
9839;BME280;4958;48.150;11.506;2023-04-27T11:55:33;95710.16;;;16.59;44.79
9839;BME280;4958;48.150;11.506;2023-04-27T11:59:45;95703.97;;;16.60;44.02
9839;BME280;4958;48.150;11.506;2023-04-27T12:22:21;95704.53;;;16.93;43.44
9839;BME280;4958;48.150;11.506;2023-04-27T12:25:07;95708.06;;;17.24;43.28
9839;BME280;4958;48.150;11.506;2023-04-27T12:41:11;95695.03;;;17.06;44.09
